createdAt,value
2018-09-25T00:01:41.229Z,96042.82
2018-09-25T00:04:15.750Z,96026.84
2018-09-25T00:24:13.615Z,96049.80
2018-09-25T00:26:48.128Z,96049.39
2018-09-25T00:46:45.091Z,96057.11
2018-09-25T00:49:19.695Z,96063.43
2018-09-25T00:51:54.615Z,96057.02
2018-09-25T00:54:29.407Z,96064.93
2018-09-25T00:57:04.601Z,96059.62
2018-09-25T01:17:01.321Z,96088.37
2018-09-25T01:19:36.581Z,96091.19
2018-09-25T01:22:11.365Z,96087.39
2018-09-25T01:42:07.241Z,96088.98
2018-09-25T01:44:41.900Z,96089.30
2018-09-25T01:47:16.948Z,96098.50
2018-09-25T01:49:51.458Z,96103.78
2018-09-25T01:52:26.417Z,96102.02
2018-09-25T01:55:01.007Z,96112.16
2018-09-25T01:57:35.709Z,96109.77
2018-09-25T02:00:10.523Z,96103.03
2018-09-25T02:02:45.692Z,96100.07
2018-09-25T02:05:20.595Z,96105.38
2018-09-25T02:07:55.854Z,96109.19
2018-09-25T02:10:30.210Z,96109.01
2018-09-25T02:13:05.518Z,96112.63
2018-09-25T02:33:01.923Z,96118.04
2018-09-25T02:35:36.541Z,96117.56
2018-09-25T02:38:11.075Z,96125.68
2018-09-25T02:40:46.365Z,96127.68
2018-09-25T03:00:41.694Z,96124.66
2018-09-25T03:03:17.046Z,96135.28
2018-09-25T03:23:13.100Z,96157.02
2018-09-25T03:25:47.799Z,96154.31
2018-09-25T03:45:42.910Z,96156.40
2018-09-25T03:48:18.154Z,96164.61
2018-09-25T03:50:52.831Z,96164.53
2018-09-25T03:53:27.966Z,96160.50
2018-09-25T03:56:02.641Z,96172.54
2018-09-25T04:15:59.926Z,96191.02
2018-09-25T04:18:34.497Z,96186.11
2018-09-25T04:21:09.414Z,96189.92
2018-09-25T04:23:44.054Z,96192.12
2018-09-25T04:43:38.930Z,96218.30
2018-09-25T04:46:13.549Z,96212.22
2018-09-25T05:06:10.374Z,96224.64
2018-09-25T05:26:06.338Z,96227.77
2018-09-25T05:28:40.873Z,96234.67
2018-09-25T05:31:15.453Z,96238.00
2018-09-25T05:51:12.791Z,96235.87
2018-09-25T05:53:53.837Z,96244.41
2018-09-25T05:56:28.543Z,96243.09
2018-09-25T06:33:46.569Z,96249.70
2018-09-25T06:53:43.583Z,96244.53
2018-09-25T07:13:40.090Z,96242.86
2018-09-25T07:16:15.157Z,96254.24
2018-09-25T07:18:50.047Z,96261.04
2018-09-25T07:21:25.296Z,96250.59
2018-09-25T07:23:59.897Z,96248.58
2018-09-25T07:26:34.833Z,96252.55
2018-09-25T07:29:09.506Z,96252.41
2018-09-25T07:31:44.474Z,96253.28
2018-09-25T07:34:19.094Z,96254.66
2018-09-25T07:36:53.713Z,96257.45
2018-09-25T07:39:28.616Z,96268.22
2018-09-25T07:42:03.069Z,96259.70
2018-09-25T07:44:37.727Z,96274.08
2018-09-25T07:47:12.901Z,96281.42
2018-09-25T08:07:09.652Z,96271.00
2018-09-25T08:09:44.773Z,96262.70
2018-09-25T08:12:19.374Z,96270.62
2018-09-25T08:14:54.280Z,96262.20
2018-09-25T08:17:28.854Z,96267.20
2018-09-25T08:37:26.019Z,96258.43
2018-09-25T08:40:00.508Z,96253.33
2018-09-25T08:42:35.299Z,96250.66
2018-09-25T09:02:32.793Z,96240.50
2018-09-25T09:05:08.041Z,96244.44
2018-09-25T09:07:42.550Z,96244.44
2018-09-25T09:10:17.510Z,96238.41
2018-09-25T09:12:52.032Z,96254.70
2018-09-25T09:15:26.972Z,96257.43
2018-09-25T09:18:01.664Z,96253.23
2018-09-25T09:20:36.418Z,96244.70
2018-09-25T09:23:11.074Z,96245.69
2018-09-25T09:43:07.350Z,96246.11
2018-09-25T09:45:41.906Z,96240.42
2018-09-25T09:48:16.939Z,96239.27
2018-09-25T09:50:51.508Z,96246.45
2018-09-25T09:53:26.425Z,96247.40
2018-09-25T09:56:00.812Z,96243.45
2018-09-25T10:33:20.638Z,96218.20
2018-09-25T10:35:55.082Z,96200.66
2018-09-25T10:55:52.433Z,96199.70
2018-09-25T11:15:47.872Z,96166.89
2018-09-25T11:18:22.895Z,96172.11
2018-09-25T11:20:57.584Z,96162.69
2018-09-25T11:23:32.110Z,96160.05
2018-09-25T11:26:06.776Z,96157.41
2018-09-25T11:28:41.252Z,96147.86
2018-09-25T11:31:15.957Z,96149.16
2018-09-25T11:33:50.777Z,96150.74
2018-09-25T11:53:47.199Z,96130.42
2018-09-25T11:56:22.132Z,96127.30
2018-09-25T11:58:56.577Z,96125.77
2018-09-25T12:18:53.644Z,96115.88
2018-09-25T12:21:28.426Z,96116.82
2018-09-25T12:41:25.445Z,96117.78
2018-09-25T13:01:21.766Z,96095.76
2018-09-25T13:03:56.448Z,96100.14
2018-09-25T13:06:31.293Z,96109.13
2018-09-25T13:09:05.860Z,96110.98
2018-09-25T13:11:40.283Z,96110.50
2018-09-25T13:31:37.175Z,96109.45
2018-09-25T13:34:12.224Z,96109.70
2018-09-25T13:36:46.977Z,96115.56
2018-09-25T13:39:22.016Z,96117.41
2018-09-25T13:41:56.557Z,96114.25
2018-09-25T13:44:31.424Z,96113.41
2018-09-25T13:47:06.235Z,96114.47
2018-09-25T14:07:01.264Z,96126.91
2018-09-25T14:09:36.099Z,96120.53
2018-09-25T14:12:10.864Z,96121.57
2018-09-25T14:14:45.571Z,96126.56
2018-09-25T14:34:41.616Z,96131.39
2018-09-25T14:54:38.045Z,96154.13
2018-09-25T15:14:36.074Z,96174.39
2018-09-25T15:17:10.582Z,96171.95
2018-09-25T15:19:45.823Z,96183.14
2018-09-25T15:22:20.891Z,96186.28
2018-09-25T15:24:55.817Z,96181.23
2018-09-25T15:27:30.376Z,96188.33
2018-09-25T15:47:28.153Z,96221.20
2018-09-25T15:50:02.808Z,96219.55
2018-09-25T15:52:37.717Z,96223.50
2018-09-25T15:55:12.362Z,96229.91
2018-09-25T15:57:47.473Z,96234.78
2018-09-25T16:00:22.040Z,96234.22
2018-09-25T16:02:57.041Z,96244.44
2018-09-25T16:22:54.706Z,96269.34
2018-09-25T16:25:29.901Z,96273.34
2018-09-25T16:45:26.304Z,96310.14
2018-09-25T16:48:01.135Z,96311.36
2018-09-25T17:07:58.425Z,96348.92
2018-09-25T17:10:33.400Z,96341.92
2018-09-25T17:13:08.137Z,96346.53
2018-09-25T17:15:42.855Z,96353.85
2018-09-25T17:18:17.412Z,96360.38
2018-09-25T17:38:14.424Z,96388.80
2018-09-25T17:40:49.078Z,96402.23
2018-09-25T17:43:23.963Z,96413.54
2018-09-25T17:45:58.634Z,96415.53
2018-09-25T17:48:33.570Z,96423.27
2018-09-25T17:51:08.226Z,96416.89
2018-09-25T17:53:42.896Z,96403.97
2018-09-25T18:13:39.909Z,96431.27
2018-09-25T18:16:14.799Z,96445.61
2018-09-25T18:18:49.567Z,96449.91
2018-09-25T18:21:24.631Z,96457.20
2018-09-25T18:23:59.626Z,96464.87
2018-09-25T18:26:34.436Z,96466.68
2018-09-25T18:29:08.880Z,96463.33
2018-09-25T18:31:43.944Z,96454.56
2018-09-25T18:34:18.355Z,96464.78
2018-09-25T18:36:53.166Z,96467.98
2018-09-25T18:39:27.591Z,96465.50
2018-09-25T18:42:02.598Z,96471.70
2018-09-25T19:01:58.655Z,96485.68
2018-09-25T19:21:55.846Z,96510.23
2018-09-25T19:24:30.487Z,96520.30
2018-09-25T19:27:05.383Z,96518.67
2018-09-25T19:29:39.827Z,96525.22
2018-09-25T19:32:14.614Z,96528.42
2018-09-25T19:34:49.655Z,96525.36
2018-09-25T19:54:46.770Z,96547.72
2018-09-25T20:14:43.949Z,96577.47
2018-09-25T20:17:19.141Z,96562.78
2018-09-25T20:19:53.724Z,96554.98
2018-09-25T20:22:29.052Z,96563.28
2018-09-25T20:25:03.517Z,96566.62
2018-09-25T20:45:00.996Z,96583.17
2018-09-25T20:47:35.670Z,96589.33
2018-09-25T20:50:10.473Z,96577.78
2018-09-25T20:52:45.063Z,96573.62
2018-09-25T20:55:20.329Z,96579.79
2018-09-25T20:57:55.038Z,96577.95
2018-09-25T21:00:29.410Z,96578.40
2018-09-25T21:03:04.577Z,96581.55
2018-09-25T21:05:39.340Z,96575.55
2018-09-25T21:08:14.123Z,96570.69
2018-09-25T21:10:48.999Z,96569.98
2018-09-25T21:13:23.878Z,96572.70
2018-09-25T21:15:59.157Z,96570.91
2018-09-25T21:18:34.006Z,96574.78
2018-09-25T21:21:09.008Z,96569.66
2018-09-25T21:23:44.017Z,96571.51
2018-09-25T21:26:18.774Z,96566.59
2018-09-25T21:28:53.470Z,96564.91
2018-09-25T21:31:28.488Z,96571.77
2018-09-25T21:34:03.147Z,96568.72
2018-09-25T21:36:42.523Z,96571.48
2018-09-25T21:39:17.424Z,96571.02
2018-09-25T21:41:52.264Z,96577.14
2018-09-25T21:44:27.081Z,96575.17
2018-09-25T21:47:01.947Z,96584.62
2018-09-25T21:49:36.523Z,96587.65
2018-09-25T21:52:11.743Z,96581.90
2018-09-25T21:54:46.233Z,96581.03
2018-09-25T21:57:21.408Z,96580.06
2018-09-25T21:59:55.843Z,96578.66
2018-09-25T22:02:30.627Z,96575.44
2018-09-25T22:05:05.421Z,96577.66
2018-09-25T22:07:42.599Z,96579.08
2018-09-25T22:10:17.483Z,96571.44
2018-09-25T22:12:52.330Z,96581.11
2018-09-25T22:15:27.205Z,96583.00
2018-09-25T22:18:02.449Z,96584.13
2018-09-25T22:20:37.099Z,96578.97
2018-09-25T22:23:12.621Z,96577.56
2018-09-25T22:25:47.461Z,96571.41
2018-09-25T22:28:22.265Z,96575.05
2018-09-25T22:30:57.528Z,96580.52
2018-09-25T22:33:32.872Z,96578.31
2018-09-25T22:36:07.761Z,96577.50
2018-09-25T22:38:42.939Z,96575.80
2018-09-25T22:41:17.659Z,96573.61
2018-09-25T22:43:52.634Z,96569.17
2018-09-25T22:46:27.286Z,96576.14
2018-09-25T22:49:02.505Z,96582.48
2018-09-25T22:51:37.148Z,96582.16
2018-09-25T22:54:12.189Z,96590.41
2018-09-25T22:56:46.906Z,96581.78
2018-09-25T22:59:21.989Z,96583.06
2018-09-25T23:01:56.964Z,96583.78
2018-09-25T23:04:31.898Z,96602.25
2018-09-25T23:07:06.721Z,96600.06
2018-09-25T23:09:41.692Z,96595.91
2018-09-25T23:12:16.350Z,96603.45
2018-09-25T23:14:51.775Z,96598.25
2018-09-25T23:17:26.653Z,96605.68
2018-09-25T23:20:01.638Z,96599.23
2018-09-25T23:22:36.513Z,96592.50
2018-09-25T23:25:11.401Z,96590.45
2018-09-25T23:27:45.958Z,96585.16
2018-09-25T23:30:20.928Z,96591.61
2018-09-25T23:32:55.549Z,96589.80
2018-09-25T23:35:30.391Z,96587.88
2018-09-25T23:38:04.798Z,96595.23
2018-09-25T23:40:44.554Z,96587.39
2018-09-25T23:43:24.917Z,96593.02
2018-09-25T23:46:02.806Z,96586.98
2018-09-25T23:48:36.187Z,96596.33
2018-09-25T23:51:10.426Z,96598.13
2018-09-25T23:53:45.017Z,96600.80
2018-09-25T23:56:19.854Z,96604.23
2018-09-25T23:59:25.139Z,96603.80
